Time;durP1;ratioP1;P1;durP2;ratioP2;P2;SDS_P1;SDS_P2;PMS_P1;PMS_P2;Temp;Humidity;BMP_temperature;BMP_pressure;BME280_temperature;BME280_humidity;BME280_pressure;Samples;Min_cycle;Max_cycle;Signal;HPM_P1;HPM_P2
2022/06/24 00:02:49;;;;;;;3.28;0.93;;;;;;;23.38;45.55;100779.22;16226660;19;128233;-68
2022/06/24 00:08:13;;;;;;;2.67;1.23;;;;;;;23.37;45.35;100783.94;16224475;19;129231;-68
2022/06/24 00:13:39;;;;;;;2.08;1.13;;;;;;;23.37;45.34;100794.28;16223652;19;129422;-68
2022/06/24 00:19:08;;;;;;;1.40;0.80;;;;;;;23.35;45.48;100781.44;16220053;19;129409;-67
2022/06/24 00:24:31;;;;;;;3.65;1.23;;;;;;;23.34;45.54;100763.03;16227495;19;131149;-68
2022/06/24 00:29:54;;;;;;;2.03;0.85;;;;;;;23.33;45.43;100750.19;16226813;19;129087;-68
2022/06/24 00:35:18;;;;;;;2.47;1.00;;;;;;;23.33;45.42;100719.47;16223226;19;130540;-68
2022/06/24 00:40:40;;;;;;;2.10;1.00;;;;;;;23.32;45.72;100706.63;16225295;19;129460;-68
2022/06/24 00:46:08;;;;;;;1.20;0.73;;;;;;;23.32;45.98;100701.06;16225047;19;128182;-68
2022/06/24 00:51:36;;;;;;;1.60;0.95;;;;;;;23.33;45.86;100705.50;16221902;19;129060;-67
2022/06/24 00:56:59;;;;;;;1.83;0.88;;;;;;;23.32;45.64;100698.25;16221802;19;129108;-68
2022/06/24 01:02:21;;;;;;;2.13;0.80;;;;;;;23.32;45.79;100694.66;16222446;19;129069;-68
2022/06/24 01:07:42;;;;;;;1.63;1.00;;;;;;;23.30;45.77;100661.41;16222724;19;129497;-68
2022/06/24 01:13:10;;;;;;;1.75;0.90;;;;;;;23.31;45.71;100646.34;16223654;19;129307;-68
2022/06/24 01:18:32;;;;;;;2.60;1.38;;;;;;;23.30;45.47;100632.69;16216328;19;128893;-68
2022/06/24 01:24:03;;;;;;;3.20;1.45;;;;;;;23.29;45.80;100640.22;16221510;19;129137;-68
2022/06/24 01:29:25;;;;;;;2.67;1.10;;;;;;;23.29;45.55;100654.16;16218641;19;128131;-67
2022/06/24 01:34:48;;;;;;;2.33;0.88;;;;;;;23.29;45.92;100654.16;16155819;19;129156;-69
2022/06/24 01:40:10;;;;;;;2.22;1.10;;;;;;;23.28;45.82;100658.06;16141144;19;129427;-68
2022/06/24 01:45:32;;;;;;;3.00;1.20;;;;;;;23.27;45.84;100678.72;16140428;19;129052;-69
2022/06/24 01:50:55;;;;;;;2.22;1.05;;;;;;;23.28;45.83;100668.41;16137762;19;131468;-68
2022/06/24 01:56:17;;;;;;;2.40;0.93;;;;;;;23.27;45.87;100627.66;16136461;19;129546;-68
2022/06/24 02:01:39;;;;;;;1.35;0.90;;;;;;;23.26;45.53;100607.31;16132171;19;129727;-69
2022/06/24 02:07:01;;;;;;;1.90;1.05;;;;;;;23.26;45.67;100579.41;16133445;19;129569;-69
2022/06/24 02:18:03;;;;;;;2.45;0.82;;;;;;;23.25;45.71;100563.78;16146156;19;129299;-68
2022/06/24 02:23:26;;;;;;;1.38;0.80;;;;;;;23.24;45.83;100581.63;16150731;19;129730;-68
2022/06/24 02:28:48;;;;;;;2.78;0.90;;;;;;;23.24;45.90;100580.78;16151456;19;129206;-68
2022/06/24 02:34:10;;;;;;;1.60;1.00;;;;;;;23.24;45.62;100578.00;16152525;19;129872;-68
2022/06/24 02:39:32;;;;;;;2.40;0.80;;;;;;;23.23;45.88;100568.81;16149436;19;129002;-68
2022/06/24 02:44:53;;;;;;;1.88;0.82;;;;;;;23.23;45.52;100560.44;16153410;19;130488;-69
2022/06/24 02:50:16;;;;;;;1.70;0.90;;;;;;;23.22;45.45;100569.91;16152992;19;130048;-69
2022/06/24 02:55:38;;;;;;;2.70;0.85;;;;;;;23.23;45.79;100593.91;16150569;19;129984;-68
2022/06/24 03:01:01;;;;;;;1.55;0.80;;;;;;;23.21;45.79;100596.16;16146976;19;129176;-70
2022/06/24 03:06:23;;;;;;;2.30;0.75;;;;;;;23.20;45.45;100589.72;16149440;19;129910;-68
2022/06/24 03:11:44;;;;;;;1.80;0.80;;;;;;;23.20;45.81;100600.06;16147623;19;130456;-68
2022/06/24 03:17:06;;;;;;;3.75;0.68;;;;;;;23.20;45.31;100605.66;16147653;19;129435;-68
2022/06/24 03:22:28;;;;;;;1.50;0.90;;;;;;;23.20;45.63;100614.03;16146960;19;130055;-68
2022/06/24 03:27:50;;;;;;;1.55;0.90;;;;;;;23.19;45.66;100620.72;16148148;19;129186;-67
2022/06/24 03:33:12;;;;;;;1.15;0.82;;;;;;;23.19;45.72;100626.31;16148549;19;129628;-68
2022/06/24 03:38:34;;;;;;;1.92;1.00;;;;;;;23.19;45.59;100617.94;16144056;19;129409;-68
2022/06/24 03:43:56;;;;;;;1.02;0.57;;;;;;;23.19;45.70;100620.72;16147508;19;131914;-68
2022/06/24 03:49:19;;;;;;;1.10;0.63;;;;;;;23.18;45.73;100625.47;16146321;19;129024;-68
2022/06/24 03:54:41;;;;;;;0.57;0.55;;;;;;;23.18;45.57;100619.03;16146076;19;129451;-68
2022/06/24 04:00:03;;;;;;;1.33;0.77;;;;;;;23.18;45.75;100624.63;16141311;19;130566;-68
2022/06/24 04:05:25;;;;;;;1.10;0.70;;;;;;;23.18;45.58;100610.66;16143909;19;132165;-68
2022/06/24 04:10:47;;;;;;;1.40;0.80;;;;;;;23.18;45.45;100614.31;16146642;19;129592;-68
2022/06/24 04:16:09;;;;;;;1.02;0.80;;;;;;;23.17;45.46;100614.56;16145174;19;129749;-68
2022/06/24 04:21:32;;;;;;;1.48;0.82;;;;;;;23.16;45.65;100604.53;16144784;19;130763;-68
2022/06/24 04:26:53;;;;;;;1.67;0.90;;;;;;;23.16;45.54;100608.19;16144031;19;128879;-67
2022/06/24 04:32:15;;;;;;;1.80;0.95;;;;;;;23.16;45.50;100608.19;16143125;19;129561;-68
2022/06/24 04:37:39;;;;;;;1.67;0.93;;;;;;;23.16;45.60;100612.91;16139092;19;131953;-68
2022/06/24 04:43:01;;;;;;;1.15;1.00;;;;;;;23.16;45.59;100612.91;16144913;19;130611;-68
2022/06/24 04:48:23;;;;;;;2.05;1.20;;;;;;;23.14;45.64;100627.16;16140990;19;129379;-68
2022/06/24 04:53:45;;;;;;;3.20;1.20;;;;;;;23.15;45.87;100627.97;16142825;19;129347;-68
2022/06/24 04:59:07;;;;;;;3.17;1.33;;;;;;;23.14;45.82;100623.53;16139265;19;129582;-69
2022/06/24 05:04:28;;;;;;;3.17;2.20;;;;;;;23.14;45.84;100643.06;16141316;19;129318;-68
2022/06/24 05:09:50;;;;;;;2.72;1.58;;;;;;;23.14;45.92;100652.28;16140678;19;129252;-68
2022/06/24 05:15:12;;;;;;;1.98;1.50;;;;;;;23.14;45.76;100648.66;16139616;19;130970;-68
2022/06/24 05:20:34;;;;;;;2.53;1.30;;;;;;;23.13;45.78;100639.44;16133944;19;130376;-68
2022/06/24 05:25:56;;;;;;;1.45;1.00;;;;;;;23.13;45.81;100638.63;16138242;19;129404;-68
2022/06/24 05:31:18;;;;;;;1.50;1.20;;;;;;;23.14;45.64;100640.28;16140328;19;128801;-68
2022/06/24 05:36:40;;;;;;;1.17;0.90;;;;;;;23.14;45.76;100640.28;16136344;19;129781;-68
2022/06/24 05:42:03;;;;;;;2.90;1.00;;;;;;;23.13;45.71;100641.41;16139583;19;130395;-68
2022/06/24 05:47:25;;;;;;;1.35;0.80;;;;;;;23.13;45.51;100627.44;16148688;19;128965;-68
2022/06/24 05:58:30;;;;;;;1.77;0.80;;;;;;;23.10;45.36;100612.09;16153912;19;129028;-69
2022/06/24 06:03:52;;;;;;;1.00;0.90;;;;;;;23.10;45.77;100611.28;16151737;19;129225;-68
2022/06/24 06:09:14;;;;;;;1.35;0.70;;;;;;;23.10;45.94;100606.50;16154946;19;129464;-69
2022/06/24 06:14:36;;;;;;;1.17;0.80;;;;;;;23.10;45.58;100611.28;16153943;19;129731;-68
2022/06/24 06:19:58;;;;;;;1.98;0.85;;;;;;;23.09;45.57;100610.41;16150045;19;130285;-68
2022/06/24 06:25:20;;;;;;;1.30;0.80;;;;;;;23.09;45.54;100627.16;16154545;19;130105;-69
2022/06/24 06:30:41;;;;;;;0.98;0.70;;;;;;;23.08;45.25;100631.06;16154713;19;129407;-69
2022/06/24 06:36:10;;;;;;;1.67;0.70;;;;;;;23.10;45.53;100633.59;16151077;19;129212;-69
2022/06/24 06:41:31;;;;;;;0.73;0.70;;;;;;;23.09;45.88;100626.34;16149964;19;129465;-68
2022/06/24 06:46:53;;;;;;;1.40;0.60;;;;;;;23.08;45.65;100636.66;16153006;19;129766;-69
2022/06/24 06:52:15;;;;;;;1.10;0.70;;;;;;;23.10;45.70;100633.59;16151154;19;129478;-68
2022/06/24 06:57:38;;;;;;;2.05;0.60;;;;;;;23.10;45.77;100628.00;16146216;19;130104;-69
2022/06/24 07:03:00;;;;;;;0.85;0.70;;;;;;;23.11;45.94;100635.28;16148105;19;128934;-69
2022/06/24 07:08:23;;;;;;;1.25;0.70;;;;;;;23.13;45.99;100649.78;16150189;19;129988;-70
2022/06/24 07:13:47;;;;;;;7.00;1.00;;;;;;;23.16;46.01;100643.59;16150207;19;129294;-69
2022/06/24 07:19:10;;;;;;;4.07;1.35;;;;;;;23.18;45.89;100644.16;16148341;19;129442;-70
2022/06/24 07:24:32;;;;;;;2.55;0.82;;;;;;;23.19;45.92;100637.47;16150849;19;129550;-64
2022/06/24 07:29:54;;;;;;;4.22;0.80;;;;;;;23.22;45.86;100630.47;16149041;19;130391;-70
2022/06/24 07:35:16;;;;;;;1.65;0.70;;;;;;;23.34;45.39;100628.19;16151189;19;129730;-68
2022/06/24 07:40:58;;;;;;;4.97;1.10;;;;;;;23.35;45.98;100622.34;16144717;19;129584;-69
2022/06/24 07:46:19;;;;;;;7.57;1.30;;;;;;;23.38;46.03;100640.47;16149806;19;128831;-69
2022/06/24 07:51:42;;;;;;;4.30;1.27;;;;;;;23.38;46.27;100637.66;16149773;19;129378;-69
2022/06/24 07:57:04;;;;;;;2.70;1.60;;;;;;;23.37;46.32;100633.19;16147350;19;129085;-70
2022/06/24 08:02:26;;;;;;;5.57;2.00;;;;;;;23.38;46.24;100639.63;16143262;19;129035;-70
2022/06/24 08:07:47;;;;;;;3.78;1.83;;;;;;;23.38;46.69;100639.63;16146271;19;129825;-70
2022/06/24 08:13:09;;;;;;;5.38;2.17;;;;;;;23.39;46.96;100638.50;16145433;19;132371;-69
2022/06/24 08:18:31;;;;;;;3.20;1.95;;;;;;;23.37;46.90;100644.38;16145366;19;130430;-68
2022/06/24 08:23:53;;;;;;;5.70;2.92;;;;;;;23.37;46.99;100649.13;16145250;19;128987;-68
2022/06/24 08:29:15;;;;;;;4.65;2.35;;;;;;;23.35;46.94;100639.06;16146072;19;130679;-69
2022/06/24 08:34:37;;;;;;;5.50;2.75;;;;;;;23.35;46.94;100639.06;16144833;19;129852;-69
2022/06/24 08:40:20;;;;;;;3.78;2.70;;;;;;;23.37;47.14;100633.19;16140148;19;129203;-68
2022/06/24 08:45:42;;;;;;;6.85;3.50;;;;;;;23.37;47.21;100624.81;16147701;19;129077;-69
2022/06/24 08:51:06;;;;;;;5.72;2.83;;;;;;;23.43;47.22;100618.13;16145800;19;129722;-70
2022/06/24 08:56:29;;;;;;;5.57;2.70;;;;;;;23.43;47.82;100608.88;16140490;19;128954;-68
2022/06/24 09:01:51;;;;;;;5.57;3.05;;;;;;;23.42;48.85;100618.38;16139323;19;129757;-72
2022/06/24 09:07:24;;;;;;;10.88;3.63;;;;;;;23.40;49.19;100626.19;16139773;19;129342;-69
2022/06/24 09:12:48;;;;;;;5.25;3.40;;;;;;;23.33;48.47;100646.91;16135951;19;129183;-67
2022/06/24 09:18:20;;;;;;;5.97;3.53;;;;;;;23.33;48.96;100651.63;16129159;19;129665;-69
2022/06/24 09:23:55;;;;;;;8.30;2.80;;;;;;;23.29;48.87;100654.16;16136797;19;128941;-73
2022/06/24 09:29:17;;;;;;;5.10;2.30;;;;;;;23.28;48.57;100638.53;16137961;19;129369;-73
2022/06/24 09:35:06;;;;;;;4.50;1.90;;;;;;;23.30;48.53;100632.69;16138206;19;129676;-70
2022/06/24 09:40:32;;;;;;;5.25;2.17;;;;;;;23.33;48.33;100621.78;16137246;19;129489;-72
2022/06/24 09:45:53;;;;;;;2.00;1.48;;;;;;;23.35;48.05;100604.72;16140244;19;129837;-73
2022/06/24 09:51:16;;;;;;;4.97;1.50;;;;;;;23.37;48.09;100610.03;16139499;19;131471;-68
2022/06/24 09:56:40;;;;;;;3.67;1.25;;;;;;;23.38;48.13;100601.38;16135418;19;130353;-72
2022/06/24 10:02:02;;;;;;;3.03;1.30;;;;;;;23.39;47.68;100613.38;16134983;19;129036;-74
2022/06/24 10:07:31;;;;;;;1.58;0.93;;;;;;;23.41;47.73;100622.28;16138977;19;128914;-72
2022/06/24 10:13:02;;;;;;;2.85;0.80;;;;;;;23.43;47.95;100631.22;16134989;19;130510;-67
2022/06/24 10:18:28;;;;;;;3.35;0.90;;;;;;;23.42;47.64;100637.91;16133601;19;129077;-71
2022/06/24 10:23:52;;;;;;;2.97;0.90;;;;;;;23.43;47.41;100642.38;16133485;19;129666;-69
2022/06/24 10:29:14;;;;;;;3.25;0.88;;;;;;;23.41;47.53;100639.91;16139865;19;129457;-69
2022/06/24 10:34:40;;;;;;;2.83;0.80;;;;;;;23.42;47.62;100635.13;16141354;19;129350;-68
2022/06/24 10:40:02;;;;;;;2.60;0.57;;;;;;;23.43;47.14;100625.63;16148700;19;129718;-68
2022/06/24 10:45:34;;;;;;;1.20;0.68;;;;;;;23.46;47.06;100637.06;16149635;19;130031;-68
2022/06/24 10:51:15;;;;;;;1.70;0.65;;;;;;;23.48;47.01;100639.59;16148813;19;130271;-68
2022/06/24 10:56:49;;;;;;;1.45;0.50;;;;;;;23.50;46.68;100626.19;16150536;19;130703;-68
2022/06/24 11:02:11;;;;;;;1.70;0.60;;;;;;;23.50;46.64;100620.59;16146872;19;130162;-69
2022/06/24 11:07:32;;;;;;;1.10;0.65;;;;;;;23.53;47.05;100605.22;16147401;19;129720;-69
2022/06/24 11:12:58;;;;;;;1.25;0.63;;;;;;;23.57;46.63;100618.31;16149461;19;129297;-68
2022/06/24 11:18:26;;;;;;;2.45;0.68;;;;;;;23.59;46.19;100618.88;16151216;19;129616;-68
2022/06/24 11:23:54;;;;;;;1.52;0.60;;;;;;;23.59;46.22;100618.88;16151134;19;129141;-68
2022/06/24 11:29:16;;;;;;;3.10;0.63;;;;;;;23.61;46.65;100604.63;16152465;19;129188;-69
2022/06/24 11:34:37;;;;;;;0.82;0.50;;;;;;;23.62;46.31;100618.31;16150998;19;128897;-69
2022/06/24 11:39:59;;;;;;;1.48;0.50;;;;;;;23.66;46.01;100613.81;16145580;19;128850;-69
2022/06/24 11:45:52;;;;;;;3.95;0.80;;;;;;;23.65;46.14;100612.13;16149942;19;129313;-68
2022/06/24 11:51:22;;;;;;;2.72;0.50;;;;;;;23.68;46.11;100607.09;16146365;19;129183;-68
2022/06/24 11:56:44;;;;;;;0.98;0.38;;;;;;;23.69;45.99;100600.41;16148908;19;129022;-67
2022/06/24 12:02:08;;;;;;;2.90;0.50;;;;;;;23.71;46.10;100592.56;16143934;19;128988;-68
2022/06/24 12:07:30;;;;;;;1.47;0.50;;;;;;;23.72;46.28;100580.28;16148812;19;130173;-68
2022/06/24 12:13:01;;;;;;;0.80;0.40;;;;;;;23.75;46.01;100582.50;16148385;19;129550;-67
2022/06/24 12:18:24;;;;;;;2.10;0.50;;;;;;;23.77;46.15;100571.84;16146415;19;128898;-68
2022/06/24 12:23:45;;;;;;;1.77;0.40;;;;;;;23.78;46.49;100570.72;16147408;19;129363;-68
2022/06/24 12:29:07;;;;;;;5.35;0.45;;;;;;;23.80;46.32;100571.28;16146503;19;129169;-68
2022/06/24 12:34:36;;;;;;;1.05;0.40;;;;;;;23.81;45.98;100572.94;16142655;19;129678;-64
2022/06/24 12:39:58;;;;;;;1.50;0.50;;;;;;;23.79;46.24;100572.41;16141420;19;130202;-63
2022/06/24 12:45:24;;;;;;;1.48;0.50;;;;;;;23.83;46.29;100567.91;16143448;19;129369;-59
2022/06/24 12:50:56;;;;;;;2.70;0.50;;;;;;;23.89;46.22;100580.69;16143177;19;129464;-59
2022/06/24 12:56:18;;;;;;;3.00;0.47;;;;;;;23.90;46.25;100589.94;16143808;19;128858;-59
2022/06/24 13:01:42;;;;;;;3.15;0.38;;;;;;;23.93;46.33;100595.75;16138165;19;129031;-59
2022/06/24 13:07:06;;;;;;;2.87;0.30;;;;;;;23.99;46.22;100595.72;16138666;19;129076;-55
2022/06/24 13:12:27;;;;;;;1.10;0.32;;;;;;;24.00;46.08;100601.03;16132667;19;130771;-66
2022/06/24 13:17:52;;;;;;;0.65;0.30;;;;;;;24.06;45.74;100587.84;16140913;19;129257;-65
2022/06/24 13:23:14;;;;;;;2.63;0.43;;;;;;;24.09;45.94;100581.69;16141271;19;129317;-53
2022/06/24 13:28:39;;;;;;;1.08;0.40;;;;;;;24.13;45.80;100571.56;16141567;19;130651;-65
2022/06/24 13:34:01;;;;;;;4.40;0.30;;;;;;;24.14;45.78;100573.22;16139529;19;129223;-62
2022/06/24 13:39:25;;;;;;;4.38;0.60;;;;;;;24.13;45.81;100565.97;16140486;19;130002;-57
2022/06/24 13:44:47;;;;;;;2.47;0.40;;;;;;;24.14;46.10;100564.03;16141503;19;128867;-62
2022/06/24 13:50:09;;;;;;;0.52;0.30;;;;;;;24.14;45.70;100573.22;16139477;19;129205;-54
2022/06/24 13:55:31;;;;;;;1.35;0.30;;;;;;;24.15;45.65;100568.50;16140843;19;129286;-66
2022/06/24 14:00:55;;;;;;;1.65;0.40;;;;;;;24.16;45.63;100559.81;16133814;19;129976;-69
2022/06/24 14:06:17;;;;;;;0.43;0.15;;;;;;;24.18;45.60;100556.72;16137568;19;129356;-71
2022/06/24 14:11:39;;;;;;;0.43;0.20;;;;;;;24.20;45.24;100549.72;16152241;19;128823;-63
2022/06/24 14:17:01;;;;;;;0.77;0.20;;;;;;;24.21;45.58;100540.19;16154760;19;129241;-61
2022/06/24 14:28:23;;;;;;;0.90;0.20;;;;;;;24.17;45.35;100561.47;16153841;19;129448;-62
2022/06/24 14:33:46;;;;;;;0.20;0.20;;;;;;;24.15;45.29;100558.13;16149249;19;129335;-62
2022/06/24 14:44:48;;;;;;;1.83;0.10;;;;;;;24.22;45.27;100541.03;16150950;19;129479;-64
2022/06/24 14:50:10;;;;;;;1.30;0.38;;;;;;;24.22;45.14;100536.28;16150238;19;129796;-64
2022/06/24 14:55:32;;;;;;;1.08;0.30;;;;;;;24.22;45.28;100536.28;16150120;19;131163;-60
2022/06/24 15:00:53;;;;;;;0.63;0.20;;;;;;;24.21;45.14;100537.41;16143960;19;130107;-58
2022/06/24 15:06:16;;;;;;;0.32;0.20;;;;;;;24.21;44.91;100548.59;16146815;19;130379;-57
2022/06/24 15:11:37;;;;;;;0.65;0.30;;;;;;;24.20;44.94;100527.34;16148935;19;129145;-62
2022/06/24 15:16:59;;;;;;;0.63;0.40;;;;;;;24.16;44.77;100517.88;16146628;19;128908;-60
2022/06/24 15:22:21;;;;;;;3.10;0.52;;;;;;;24.10;45.09;100516.28;16142165;19;131695;-62
2022/06/24 15:27:43;;;;;;;1.13;0.40;;;;;;;24.05;45.34;100502.34;16147435;19;129163;-64
2022/06/24 15:33:05;;;;;;;1.85;0.52;;;;;;;23.99;45.39;100497.94;16147463;19;130668;-66
2022/06/24 15:38:27;;;;;;;2.22;0.43;;;;;;;23.95;44.99;100529.25;16142164;19;129008;-70
2022/06/24 15:43:49;;;;;;;6.82;0.70;;;;;;;23.90;45.06;100576.78;16147094;19;130289;-64
2022/06/24 15:49:11;;;;;;;4.13;0.45;;;;;;;23.85;45.25;100624.31;16146635;19;129663;-69
2022/06/24 15:54:33;;;;;;;6.03;0.70;;;;;;;23.82;45.43;100622.91;16141361;19;130285;-69
2022/06/24 15:59:55;;;;;;;4.50;0.80;;;;;;;23.79;45.49;100617.94;16143601;19;130173;-67
2022/06/24 16:05:17;;;;;;;4.80;0.70;;;;;;;23.78;45.57;100615.41;16143768;19;129611;-70
2022/06/24 16:10:39;;;;;;;6.55;0.77;;;;;;;23.76;45.94;100610.13;16143449;19;129054;-70
2022/06/24 16:16:01;;;;;;;1.67;0.63;;;;;;;23.76;45.61;100589.72;16144059;19;129334;-70
2022/06/24 16:21:23;;;;;;;2.85;0.65;;;;;;;23.76;45.88;100573.81;16141543;19;129648;-70
2022/06/24 16:32:25;;;;;;;1.95;0.57;;;;;;;23.75;46.30;100565.75;16143484;19;129067;-71
2022/06/24 16:37:48;;;;;;;3.40;0.80;;;;;;;23.75;45.92;100560.97;16139258;19;128793;-69
2022/06/24 16:43:16;;;;;;;2.95;0.50;;;;;;;23.74;46.27;100550.09;16139136;19;128813;-69
2022/06/24 16:48:39;;;;;;;2.30;0.70;;;;;;;23.74;46.28;100544.53;16144541;19;128956;-66
2022/06/24 16:54:01;;;;;;;2.15;0.50;;;;;;;23.75;46.33;100537.81;16144145;19;128907;-70
2022/06/24 16:59:23;;;;;;;1.17;0.40;;;;;;;23.75;46.42;100544.22;16143017;19;129948;-69
2022/06/24 17:04:45;;;;;;;3.50;0.98;;;;;;;23.75;46.91;100560.16;16143154;19;128794;-69
2022/06/24 17:10:07;;;;;;;2.47;0.52;;;;;;;23.75;46.46;100557.34;16143072;19;128834;-65
2022/06/24 17:15:29;;;;;;;1.33;0.47;;;;;;;23.75;46.61;100565.75;16142760;19;129416;-68
2022/06/24 17:20:52;;;;;;;1.90;0.40;;;;;;;23.76;46.78;100578.56;16139442;19;129440;-69
2022/06/24 17:26:14;;;;;;;2.80;0.50;;;;;;;23.76;46.64;100589.72;16142057;19;128936;-67
2022/06/24 17:31:35;;;;;;;1.42;0.40;;;;;;;23.75;46.73;100593.66;16143094;19;129313;-68
2022/06/24 17:36:57;;;;;;;0.50;0.30;;;;;;;23.75;46.92;100596.47;16138150;19;129750;-69
2022/06/24 17:42:22;;;;;;;1.13;0.40;;;;;;;23.74;47.11;100592.81;16133486;19;129270;-69
2022/06/24 17:47:44;;;;;;;0.52;0.30;;;;;;;23.74;46.91;100578.03;16141059;19;129992;-70
2022/06/24 17:53:06;;;;;;;0.80;0.40;;;;;;;23.74;46.97;100580.81;16140998;19;128903;-67
2022/06/24 17:58:28;;;;;;;1.65;0.40;;;;;;;23.73;47.18;100562.41;16139987;19;128837;-70
2022/06/24 18:03:49;;;;;;;2.53;0.80;;;;;;;23.74;46.75;100572.44;16134904;19;129253;-69
2022/06/24 18:09:11;;;;;;;2.67;0.50;;;;;;;23.75;47.05;100576.91;16140203;19;128887;-70
2022/06/24 18:14:34;;;;;;;1.05;0.30;;;;;;;23.75;47.22;100571.31;16140535;19;128919;-68
2022/06/24 18:19:56;;;;;;;0.40;0.30;;;;;;;23.74;47.23;100567.69;16138368;19;130181;-69
2022/06/24 18:25:18;;;;;;;0.85;0.30;;;;;;;23.73;47.27;100574.38;16139893;19;129319;-69
2022/06/24 18:30:40;;;;;;;0.88;0.40;;;;;;;23.72;47.41;100583.06;16138792;19;129131;-65
2022/06/24 18:36:02;;;;;;;1.80;0.40;;;;;;;23.70;46.98;100590.91;16135877;19;128869;-68
2022/06/24 18:41:24;;;;;;;0.55;0.35;;;;;;;23.68;47.33;100593.13;16133739;19;128951;-70
2022/06/24 18:46:45;;;;;;;0.28;0.20;;;;;;;23.66;47.40;100596.22;16135324;19;128925;-65
2022/06/24 18:52:08;;;;;;;0.57;0.30;;;;;;;23.64;47.72;100604.06;16134642;19;130204;-69
2022/06/24 18:57:30;;;;;;;0.47;0.40;;;;;;;23.62;47.19;100600.72;16150043;19;129532;-66
2022/06/24 19:02:52;;;;;;;0.30;0.30;;;;;;;23.60;47.47;100609.41;16147886;19;129073;-70
2022/06/24 19:08:17;;;;;;;1.17;0.20;;;;;;;23.57;47.68;100618.31;16152641;19;128911;-70
2022/06/24 19:13:39;;;;;;;0.20;0.10;;;;;;;23.56;47.70;100629.78;16150919;19;128880;-67
2022/06/24 19:19:07;;;;;;;0.60;0.30;;;;;;;23.53;47.78;100636.75;16151087;19;129404;-68
2022/06/24 19:24:31;;;;;;;0.35;0.28;;;;;;;23.51;47.79;100633.41;16153429;19;129343;-70
2022/06/24 19:29:54;;;;;;;0.55;0.30;;;;;;;23.50;47.91;100646.53;16152758;19;129681;-70
2022/06/24 19:35:16;;;;;;;0.93;0.40;;;;;;;23.48;47.69;100662.75;16148834;19;132002;-68
2022/06/24 19:40:56;;;;;;;0.68;0.30;;;;;;;23.47;47.87;100669.44;16147081;19;129337;-67
2022/06/24 19:46:18;;;;;;;1.00;0.20;;;;;;;23.46;47.88;100675.31;16152852;19;129510;-69
2022/06/24 19:51:40;;;;;;;1.08;0.28;;;;;;;23.45;47.76;100677.25;16149504;19;131708;-69
2022/06/24 19:57:03;;;;;;;0.45;0.30;;;;;;;23.44;47.91;100677.56;16151713;19;129282;-69
2022/06/24 20:08:05;;;;;;;0.68;0.20;;;;;;;23.40;48.20;100694.06;16154176;19;129387;-69
2022/06/24 20:13:27;;;;;;;0.40;0.17;;;;;;;23.39;47.87;100697.09;16158276;19;128970;-70
2022/06/24 20:18:56;;;;;;;0.95;0.30;;;;;;;23.37;48.30;100702.16;16158837;19;129575;-69
2022/06/24 20:24:23;;;;;;;0.85;0.30;;;;;;;23.34;48.35;100706.34;16158011;19;129068;-67
2022/06/24 20:29:45;;;;;;;1.38;0.40;;;;;;;23.31;48.03;100718.91;16199710;19;130172;-68
2022/06/24 20:35:07;;;;;;;0.73;0.60;;;;;;;23.28;48.08;100719.47;16199309;19;128755;-70
2022/06/24 20:40:30;;;;;;;4.47;0.80;;;;;;;23.26;47.87;100724.53;16203792;19;128434;-66
2022/06/24 20:45:55;;;;;;;3.30;0.82;;;;;;;23.22;47.68;100737.38;16209703;19;128487;-70
2022/06/24 20:51:23;;;;;;;1.67;0.90;;;;;;;23.18;47.50;100734.31;16186006;19;128684;-67
2022/06/24 20:56:45;;;;;;;7.25;1.10;;;;;;;23.16;47.78;100738.47;16193466;19;129407;-67
2022/06/24 21:02:08;;;;;;;6.93;1.35;;;;;;;23.17;47.42;100748.53;16191075;19;128407;-66
2022/06/24 21:07:31;;;;;;;4.15;0.93;;;;;;;23.16;47.58;100749.66;16198551;19;129202;-63
2022/06/24 21:12:54;;;;;;;4.65;1.58;;;;;;;23.15;47.33;100745.19;16221890;19;127905;-65
2022/06/24 21:18:15;;;;;;;8.75;1.17;;;;;;;23.16;47.33;100744.91;16223359;19;128305;-62
2022/06/24 21:23:37;;;;;;;6.40;1.35;;;;;;;23.18;47.53;100741.84;16218333;19;129521;-63
2022/06/24 21:28:59;;;;;;;4.20;1.25;;;;;;;23.18;47.23;100747.41;16223281;19;128923;-64
2022/06/24 21:34:21;;;;;;;3.17;1.00;;;;;;;23.19;47.58;100749.09;16221347;19;128076;-66
2022/06/24 21:39:43;;;;;;;4.47;1.13;;;;;;;23.18;47.62;100748.25;16220852;19;127786;-59
2022/06/24 21:45:11;;;;;;;2.90;1.00;;;;;;;23.18;47.33;100742.69;16221339;19;128156;-56
2022/06/24 21:50:33;;;;;;;5.80;1.00;;;;;;;23.19;47.60;100755.53;16209426;19;128762;-53
2022/06/24 21:55:55;;;;;;;8.38;1.50;;;;;;;23.22;47.67;100753.25;16216600;19;129114;-55
2022/06/24 22:01:16;;;;;;;7.85;1.05;;;;;;;23.23;47.40;100761.38;16212290;19;128407;-51
2022/06/24 22:06:44;;;;;;;3.70;0.80;;;;;;;23.26;47.76;100754.38;16214482;19;128823;-57
2022/06/24 22:12:07;;;;;;;3.67;1.00;;;;;;;23.27;47.69;100756.06;16216613;19;128118;-56
2022/06/24 22:17:47;;;;;;;4.30;1.00;;;;;;;23.29;47.46;100756.63;16211341;19;127924;-53
2022/06/24 22:23:09;;;;;;;2.90;0.90;;;;;;;23.28;47.67;100764.13;16212065;19;129057;-55
2022/06/24 22:28:30;;;;;;;2.55;0.80;;;;;;;23.29;47.53;100757.44;16216424;19;128073;-54
2022/06/24 22:33:52;;;;;;;1.13;0.68;;;;;;;23.29;47.72;100748.25;16229742;19;127948;-57
2022/06/24 22:39:14;;;;;;;1.85;0.93;;;;;;;23.28;47.80;100743.78;16230112;19;130110;-57
2022/06/24 22:44:36;;;;;;;0.60;0.50;;;;;;;23.26;47.54;100744.06;16224574;19;129402;-56
2022/06/24 22:49:58;;;;;;;2.92;0.68;;;;;;;23.25;47.63;100747.97;16230241;19;129525;-56
2022/06/24 22:55:19;;;;;;;1.27;0.70;;;;;;;23.25;47.66;100750.75;16226073;19;129325;-55
2022/06/24 23:00:41;;;;;;;1.83;0.60;;;;;;;23.24;48.03;100756.59;16226446;19;128924;-57
2022/06/24 23:06:05;;;;;;;2.13;0.60;;;;;;;23.23;47.77;100761.38;16228109;19;127822;-55
2022/06/24 23:11:27;;;;;;;1.25;0.50;;;;;;;23.23;47.95;100764.16;16225023;19;129435;-57
2022/06/24 23:16:49;;;;;;;1.42;0.52;;;;;;;23.24;48.04;100774.22;16228248;19;129026;-55
2022/06/24 23:22:11;;;;;;;0.70;0.47;;;;;;;23.24;48.21;100756.59;16187336;19;132253;-56
2022/06/24 23:27:33;;;;;;;1.90;0.50;;;;;;;23.22;47.87;100765.28;16146853;19;129897;-56
2022/06/24 23:32:56;;;;;;;1.30;0.63;;;;;;;23.21;47.92;100763.59;16147754;19;128899;-57
2022/06/24 23:38:18;;;;;;;0.88;0.50;;;;;;;23.21;47.92;100769.19;16141267;19;129183;-55
2022/06/24 23:43:40;;;;;;;1.52;0.70;;;;;;;23.19;48.14;100772.25;16143342;19;130018;-57
2022/06/24 23:54:43;;;;;;;1.05;0.40;;;;;;;23.16;48.02;100772.81;16148045;19;129088;-58
